2007/6/4 月曜日

二度目の飛来。

昨年11月に初飛来したA380が本日再び来日します。今回はWorld tourでの飛来でプレスもされています。機材は昨年とは異なりF-WWJBのようです。

今日の成田のTAFは、
RJAA 031440Z 040018 12007KT 9999 FEW030
ですから、前回と違って天気も良さそうです。

明日はデモフライトもあるようですが、水曜日までは休めないなぁ〜。残念!!

Tags: ,

  • クロスバイクで成田へ
  • 成田に行って来ました。(24)
  • 海外LCC (その3)
  • 海外LCC (その2)
  • 海外LCC (その1)
  • SKYTEAM塗装機
  • 国内LCC
  • HondaJet
  • special marking
  • チャーターやエキストラ
  • こんな塗装のジャンボが見れるとは。
  • ジャンボは貨物機??
  • 少なくなったジャンボ
  • 新聞記者にもマニアがいますね。
  • 成田が30周年。
  • 今日の飛来機
  • 成田に行って来ました。(25)
  • Filed under: Airliner — ◇敏郎◇ @ 0:45:23

    コメント (0) »

    この記事にはまだコメントがついていません。

    コメント RSS トラックバック URL

    コメントをどうぞ

    HTML convert time: 0.282 sec. Powered by WordPress ME